sensor_id;sensor_type;location;lat;lon;timestamp;temperature;humidity
22416;DHT22;12204;50.600;4.608;2023-12-29T00:02:25;22.00;70.40
22416;DHT22;12204;50.600;4.608;2023-12-29T00:07:29;22.00;70.40
22416;DHT22;12204;50.600;4.608;2023-12-29T00:12:32;22.00;70.70
22416;DHT22;12204;50.600;4.608;2023-12-29T00:17:37;21.90;70.50
22416;DHT22;12204;50.600;4.608;2023-12-29T00:22:42;21.90;70.50
22416;DHT22;12204;50.600;4.608;2023-12-29T00:27:46;21.90;70.70
22416;DHT22;12204;50.600;4.608;2023-12-29T00:32:50;21.90;70.60
22416;DHT22;12204;50.600;4.608;2023-12-29T00:37:54;21.90;70.50
22416;DHT22;12204;50.600;4.608;2023-12-29T00:42:59;21.90;70.50
22416;DHT22;12204;50.600;4.608;2023-12-29T00:48:05;21.90;70.40
22416;DHT22;12204;50.600;4.608;2023-12-29T00:53:09;21.90;70.40
22416;DHT22;12204;50.600;4.608;2023-12-29T00:58:13;21.90;70.40
22416;DHT22;12204;50.600;4.608;2023-12-29T01:03:18;21.80;70.40
22416;DHT22;12204;50.600;4.608;2023-12-29T01:08:25;21.80;70.50
22416;DHT22;12204;50.600;4.608;2023-12-29T01:13:31;21.80;70.60
22416;DHT22;12204;50.600;4.608;2023-12-29T01:18:36;21.80;70.70
22416;DHT22;12204;50.600;4.608;2023-12-29T01:23:40;21.80;70.70
22416;DHT22;12204;50.600;4.608;2023-12-29T01:28:45;21.80;70.60
22416;DHT22;12204;50.600;4.608;2023-12-29T01:33:49;21.70;71.00
22416;DHT22;12204;50.600;4.608;2023-12-29T01:38:53;21.70;71.00
22416;DHT22;12204;50.600;4.608;2023-12-29T01:44:17;21.70;71.20
22416;DHT22;12204;50.600;4.608;2023-12-29T01:49:24;21.60;71.60
22416;DHT22;12204;50.600;4.608;2023-12-29T01:54:30;21.60;71.10
22416;DHT22;12204;50.600;4.608;2023-12-29T01:59:37;21.60;71.00
22416;DHT22;12204;50.600;4.608;2023-12-29T02:04:42;21.60;70.90
22416;DHT22;12204;50.600;4.608;2023-12-29T02:09:46;21.60;70.90
22416;DHT22;12204;50.600;4.608;2023-12-29T02:14:50;21.60;70.90
22416;DHT22;12204;50.600;4.608;2023-12-29T02:19:55;21.60;70.90
22416;DHT22;12204;50.600;4.608;2023-12-29T02:25:00;21.60;70.90
22416;DHT22;12204;50.600;4.608;2023-12-29T02:30:09;21.60;71.10
22416;DHT22;12204;50.600;4.608;2023-12-29T02:35:22;21.50;71.50
22416;DHT22;12204;50.600;4.608;2023-12-29T02:40:29;21.50;72.40
22416;DHT22;12204;50.600;4.608;2023-12-29T02:45:33;21.50;71.80
22416;DHT22;12204;50.600;4.608;2023-12-29T02:50:36;21.50;72.10
22416;DHT22;12204;50.600;4.608;2023-12-29T02:55:42;21.50;72.30
22416;DHT22;12204;50.600;4.608;2023-12-29T03:00:46;21.50;72.30
22416;DHT22;12204;50.600;4.608;2023-12-29T03:05:49;21.50;72.20
22416;DHT22;12204;50.600;4.608;2023-12-29T03:10:54;21.40;72.00
22416;DHT22;12204;50.600;4.608;2023-12-29T03:15:58;21.50;71.70
22416;DHT22;12204;50.600;4.608;2023-12-29T03:21:01;21.50;72.30
22416;DHT22;12204;50.600;4.608;2023-12-29T03:26:07;21.50;72.10
22416;DHT22;12204;50.600;4.608;2023-12-29T03:31:11;21.50;72.10
22416;DHT22;12204;50.600;4.608;2023-12-29T03:36:14;21.40;72.50
22416;DHT22;12204;50.600;4.608;2023-12-29T03:41:19;21.40;72.80
22416;DHT22;12204;50.600;4.608;2023-12-29T03:46:23;21.40;72.90
22416;DHT22;12204;50.600;4.608;2023-12-29T03:51:27;21.40;72.80
22416;DHT22;12204;50.600;4.608;2023-12-29T03:56:32;21.40;72.70
22416;DHT22;12204;50.600;4.608;2023-12-29T04:01:36;21.40;72.50
22416;DHT22;12204;50.600;4.608;2023-12-29T04:06:39;21.40;72.50
22416;DHT22;12204;50.600;4.608;2023-12-29T04:11:45;21.40;72.50
22416;DHT22;12204;50.600;4.608;2023-12-29T04:16:48;21.50;72.30
22416;DHT22;12204;50.600;4.608;2023-12-29T04:21:52;21.40;72.30
22416;DHT22;12204;50.600;4.608;2023-12-29T04:26:57;21.40;72.50
22416;DHT22;12204;50.600;4.608;2023-12-29T04:32:00;21.40;72.60
22416;DHT22;12204;50.600;4.608;2023-12-29T04:37:04;21.30;72.60
22416;DHT22;12204;50.600;4.608;2023-12-29T04:42:09;21.30;73.10
22416;DHT22;12204;50.600;4.608;2023-12-29T04:47:13;21.30;72.90
22416;DHT22;12204;50.600;4.608;2023-12-29T04:52:17;21.40;72.50
22416;DHT22;12204;50.600;4.608;2023-12-29T04:57:21;21.40;72.90
22416;DHT22;12204;50.600;4.608;2023-12-29T05:02:25;21.40;72.50
22416;DHT22;12204;50.600;4.608;2023-12-29T05:07:28;21.50;71.90
22416;DHT22;12204;50.600;4.608;2023-12-29T05:12:33;21.50;71.40
22416;DHT22;12204;50.600;4.608;2023-12-29T05:17:37;21.60;71.30
22416;DHT22;12204;50.600;4.608;2023-12-29T05:22:41;21.70;71.10
22416;DHT22;12204;50.600;4.608;2023-12-29T05:27:46;21.70;70.80
22416;DHT22;12204;50.600;4.608;2023-12-29T05:32:49;21.80;70.60
22416;DHT22;12204;50.600;4.608;2023-12-29T05:37:53;21.80;70.60
22416;DHT22;12204;50.600;4.608;2023-12-29T05:42:58;21.80;70.40
22416;DHT22;12204;50.600;4.608;2023-12-29T05:48:02;21.80;70.20
22416;DHT22;12204;50.600;4.608;2023-12-29T05:53:06;21.80;70.00
22416;DHT22;12204;50.600;4.608;2023-12-29T05:58:11;21.80;69.90
22416;DHT22;12204;50.600;4.608;2023-12-29T06:03:15;21.90;70.10
22416;DHT22;12204;50.600;4.608;2023-12-29T06:08:18;21.90;70.10
22416;DHT22;12204;50.600;4.608;2023-12-29T06:13:23;21.80;69.90
22416;DHT22;12204;50.600;4.608;2023-12-29T06:18:27;21.90;69.80
22416;DHT22;12204;50.600;4.608;2023-12-29T06:23:31;21.80;70.00
22416;DHT22;12204;50.600;4.608;2023-12-29T06:28:36;21.80;69.90
22416;DHT22;12204;50.600;4.608;2023-12-29T06:33:40;21.80;70.00
22416;DHT22;12204;50.600;4.608;2023-12-29T06:38:45;21.80;70.70
22416;DHT22;12204;50.600;4.608;2023-12-29T06:43:52;21.80;69.90
22416;DHT22;12204;50.600;4.608;2023-12-29T06:48:55;21.80;70.00
22416;DHT22;12204;50.600;4.608;2023-12-29T06:53:59;21.80;70.10
22416;DHT22;12204;50.600;4.608;2023-12-29T06:59:04;21.80;70.10
22416;DHT22;12204;50.600;4.608;2023-12-29T07:04:08;21.80;70.10
22416;DHT22;12204;50.600;4.608;2023-12-29T07:09:12;21.80;70.20
22416;DHT22;12204;50.600;4.608;2023-12-29T07:14:17;21.70;70.10
22416;DHT22;12204;50.600;4.608;2023-12-29T07:19:21;21.70;71.40
22416;DHT22;12204;50.600;4.608;2023-12-29T07:24:24;21.70;70.40
22416;DHT22;12204;50.600;4.608;2023-12-29T07:29:29;21.70;70.40
22416;DHT22;12204;50.600;4.608;2023-12-29T07:34:33;21.60;71.00
22416;DHT22;12204;50.600;4.608;2023-12-29T07:39:37;21.60;71.10
22416;DHT22;12204;50.600;4.608;2023-12-29T07:44:42;21.60;70.70
22416;DHT22;12204;50.600;4.608;2023-12-29T07:49:46;21.60;70.40
22416;DHT22;12204;50.600;4.608;2023-12-29T07:54:49;21.60;70.20
22416;DHT22;12204;50.600;4.608;2023-12-29T07:59:54;21.60;70.10
22416;DHT22;12204;50.600;4.608;2023-12-29T08:04:58;21.60;70.20
22416;DHT22;12204;50.600;4.608;2023-12-29T08:10:02;21.60;70.90
22416;DHT22;12204;50.600;4.608;2023-12-29T08:15:08;21.70;70.80
22416;DHT22;12204;50.600;4.608;2023-12-29T08:20:12;21.70;70.50
22416;DHT22;12204;50.600;4.608;2023-12-29T08:25:16;21.60;70.40
22416;DHT22;12204;50.600;4.608;2023-12-29T08:30:21;21.60;70.40
22416;DHT22;12204;50.600;4.608;2023-12-29T08:35:25;21.60;70.50
22416;DHT22;12204;50.600;4.608;2023-12-29T08:40:28;21.60;70.30
22416;DHT22;12204;50.600;4.608;2023-12-29T08:45:33;21.60;70.20
22416;DHT22;12204;50.600;4.608;2023-12-29T08:50:37;21.40;66.30
22416;DHT22;12204;50.600;4.608;2023-12-29T08:55:40;21.20;65.50
22416;DHT22;12204;50.600;4.608;2023-12-29T09:00:45;21.00;64.70
22416;DHT22;12204;50.600;4.608;2023-12-29T09:05:49;20.80;64.70
22416;DHT22;12204;50.600;4.608;2023-12-29T09:10:53;20.80;65.50
22416;DHT22;12204;50.600;4.608;2023-12-29T09:15:58;20.90;65.70
22416;DHT22;12204;50.600;4.608;2023-12-29T09:21:02;20.90;66.00
22416;DHT22;12204;50.600;4.608;2023-12-29T09:26:06;20.90;66.30
22416;DHT22;12204;50.600;4.608;2023-12-29T09:31:12;20.90;66.70
22416;DHT22;12204;50.600;4.608;2023-12-29T09:36:15;20.90;66.80
22416;DHT22;12204;50.600;4.608;2023-12-29T09:41:20;20.90;67.10
22416;DHT22;12204;50.600;4.608;2023-12-29T09:46:28;20.90;67.40
22416;DHT22;12204;50.600;4.608;2023-12-29T09:51:36;20.90;67.60
22416;DHT22;12204;50.600;4.608;2023-12-29T09:56:41;20.90;68.60
22416;DHT22;12204;50.600;4.608;2023-12-29T10:01:47;20.90;68.10
22416;DHT22;12204;50.600;4.608;2023-12-29T10:06:52;20.80;68.10
22416;DHT22;12204;50.600;4.608;2023-12-29T10:11:58;20.80;68.30
22416;DHT22;12204;50.600;4.608;2023-12-29T10:17:09;20.80;68.40
22416;DHT22;12204;50.600;4.608;2023-12-29T10:22:21;20.80;68.50
22416;DHT22;12204;50.600;4.608;2023-12-29T10:27:27;20.80;68.60
22416;DHT22;12204;50.600;4.608;2023-12-29T10:32:32;20.80;68.70
22416;DHT22;12204;50.600;4.608;2023-12-29T10:37:36;20.80;68.90
22416;DHT22;12204;50.600;4.608;2023-12-29T10:42:51;20.70;68.90
22416;DHT22;12204;50.600;4.608;2023-12-29T10:48:00;20.70;69.10
22416;DHT22;12204;50.600;4.608;2023-12-29T10:53:13;20.70;69.10
22416;DHT22;12204;50.600;4.608;2023-12-29T10:58:18;20.70;69.10
22416;DHT22;12204;50.600;4.608;2023-12-29T11:03:23;20.70;69.30
22416;DHT22;12204;50.600;4.608;2023-12-29T11:08:27;20.70;69.40
22416;DHT22;12204;50.600;4.608;2023-12-29T11:13:31;20.70;69.50
22416;DHT22;12204;50.600;4.608;2023-12-29T11:18:38;20.60;69.50
22416;DHT22;12204;50.600;4.608;2023-12-29T11:23:41;20.60;69.70
22416;DHT22;12204;50.600;4.608;2023-12-29T11:28:46;20.60;69.80
22416;DHT22;12204;50.600;4.608;2023-12-29T11:33:56;20.60;69.90
22416;DHT22;12204;50.600;4.608;2023-12-29T11:39:10;20.60;70.00
22416;DHT22;12204;50.600;4.608;2023-12-29T11:44:25;20.60;70.10
22416;DHT22;12204;50.600;4.608;2023-12-29T11:50:00;20.60;70.30
22416;DHT22;12204;50.600;4.608;2023-12-29T11:55:08;20.60;70.30
22416;DHT22;12204;50.600;4.608;2023-12-29T12:00:13;20.60;70.40
22416;DHT22;12204;50.600;4.608;2023-12-29T12:05:45;20.60;70.50
22416;DHT22;12204;50.600;4.608;2023-12-29T12:10:50;20.60;70.60
22416;DHT22;12204;50.600;4.608;2023-12-29T12:15:54;20.60;70.80
22416;DHT22;12204;50.600;4.608;2023-12-29T12:21:00;20.50;70.70
22416;DHT22;12204;50.600;4.608;2023-12-29T12:26:05;20.50;70.70
22416;DHT22;12204;50.600;4.608;2023-12-29T12:31:10;20.60;70.90
22416;DHT22;12204;50.600;4.608;2023-12-29T12:36:17;20.50;70.90
22416;DHT22;12204;50.600;4.608;2023-12-29T12:41:21;20.50;70.90
22416;DHT22;12204;50.600;4.608;2023-12-29T12:46:25;20.50;71.00
22416;DHT22;12204;50.600;4.608;2023-12-29T12:51:30;20.50;71.00
22416;DHT22;12204;50.600;4.608;2023-12-29T12:56:35;20.50;71.00
22416;DHT22;12204;50.600;4.608;2023-12-29T13:01:39;20.50;71.00
22416;DHT22;12204;50.600;4.608;2023-12-29T13:06:46;20.40;71.00
22416;DHT22;12204;50.600;4.608;2023-12-29T13:12:07;20.40;71.00
22416;DHT22;12204;50.600;4.608;2023-12-29T13:17:13;20.40;71.00
22416;DHT22;12204;50.600;4.608;2023-12-29T13:22:19;20.50;71.20
22416;DHT22;12204;50.600;4.608;2023-12-29T13:27:23;20.50;71.20
22416;DHT22;12204;50.600;4.608;2023-12-29T13:32:27;20.40;71.10
22416;DHT22;12204;50.600;4.608;2023-12-29T13:37:36;20.40;71.20
22416;DHT22;12204;50.600;4.608;2023-12-29T13:42:48;20.40;71.20
22416;DHT22;12204;50.600;4.608;2023-12-29T13:47:56;20.40;71.30
22416;DHT22;12204;50.600;4.608;2023-12-29T13:53:02;20.40;71.30
22416;DHT22;12204;50.600;4.608;2023-12-29T13:58:09;20.40;71.30
22416;DHT22;12204;50.600;4.608;2023-12-29T14:03:16;20.40;71.30
22416;DHT22;12204;50.600;4.608;2023-12-29T14:08:32;20.30;71.40
22416;DHT22;12204;50.600;4.608;2023-12-29T14:13:41;20.40;71.40
22416;DHT22;12204;50.600;4.608;2023-12-29T14:19:03;20.40;71.40
22416;DHT22;12204;50.600;4.608;2023-12-29T14:24:09;20.30;71.40
22416;DHT22;12204;50.600;4.608;2023-12-29T14:29:14;20.30;71.40
22416;DHT22;12204;50.600;4.608;2023-12-29T14:34:19;20.30;71.40
22416;DHT22;12204;50.600;4.608;2023-12-29T14:39:24;20.30;71.40
22416;DHT22;12204;50.600;4.608;2023-12-29T14:44:27;20.30;71.50
22416;DHT22;12204;50.600;4.608;2023-12-29T14:49:31;20.30;71.50
22416;DHT22;12204;50.600;4.608;2023-12-29T14:54:37;20.30;71.50
22416;DHT22;12204;50.600;4.608;2023-12-29T14:59:43;20.30;71.50
22416;DHT22;12204;50.600;4.608;2023-12-29T15:04:46;20.30;71.60
22416;DHT22;12204;50.600;4.608;2023-12-29T15:09:52;20.30;71.60
22416;DHT22;12204;50.600;4.608;2023-12-29T15:14:55;20.30;71.60
22416;DHT22;12204;50.600;4.608;2023-12-29T15:19:59;20.20;71.50
22416;DHT22;12204;50.600;4.608;2023-12-29T15:25:04;20.30;71.60
22416;DHT22;12204;50.600;4.608;2023-12-29T15:30:09;20.20;71.60
22416;DHT22;12204;50.600;4.608;2023-12-29T15:35:13;20.20;71.60
22416;DHT22;12204;50.600;4.608;2023-12-29T15:40:18;20.20;71.60
22416;DHT22;12204;50.600;4.608;2023-12-29T15:45:22;20.20;71.70
22416;DHT22;12204;50.600;4.608;2023-12-29T15:50:28;20.20;71.70
22416;DHT22;12204;50.600;4.608;2023-12-29T15:55:32;20.20;71.80
22416;DHT22;12204;50.600;4.608;2023-12-29T16:00:36;20.30;72.00
22416;DHT22;12204;50.600;4.608;2023-12-29T16:05:39;20.40;72.20
22416;DHT22;12204;50.600;4.608;2023-12-29T16:10:44;20.40;72.20
22416;DHT22;12204;50.600;4.608;2023-12-29T16:15:48;20.50;72.70
22416;DHT22;12204;50.600;4.608;2023-12-29T16:20:51;20.50;72.80
22416;DHT22;12204;50.600;4.608;2023-12-29T16:25:56;20.50;73.30
22416;DHT22;12204;50.600;4.608;2023-12-29T16:31:03;20.50;73.40
22416;DHT22;12204;50.600;4.608;2023-12-29T16:36:10;20.50;73.60
22416;DHT22;12204;50.600;4.608;2023-12-29T16:41:16;20.60;73.40
22416;DHT22;12204;50.600;4.608;2023-12-29T16:46:21;20.60;73.40
22416;DHT22;12204;50.600;4.608;2023-12-29T16:51:25;20.60;73.60
22416;DHT22;12204;50.600;4.608;2023-12-29T16:56:29;20.50;73.70
22416;DHT22;12204;50.600;4.608;2023-12-29T17:01:33;20.50;73.60
22416;DHT22;12204;50.600;4.608;2023-12-29T17:06:38;20.50;73.50
22416;DHT22;12204;50.600;4.608;2023-12-29T17:11:43;20.50;73.80
22416;DHT22;12204;50.600;4.608;2023-12-29T17:16:47;20.40;73.70
22416;DHT22;12204;50.600;4.608;2023-12-29T17:21:51;20.40;73.60
22416;DHT22;12204;50.600;4.608;2023-12-29T17:26:56;20.40;74.00
22416;DHT22;12204;50.600;4.608;2023-12-29T17:31:59;20.40;74.00
22416;DHT22;12204;50.600;4.608;2023-12-29T17:37:04;20.40;73.90
22416;DHT22;12204;50.600;4.608;2023-12-29T17:42:09;20.40;73.80
22416;DHT22;12204;50.600;4.608;2023-12-29T17:47:13;20.40;73.70
22416;DHT22;12204;50.600;4.608;2023-12-29T17:52:17;20.40;73.60
22416;DHT22;12204;50.600;4.608;2023-12-29T17:57:21;20.40;73.50
22416;DHT22;12204;50.600;4.608;2023-12-29T18:02:25;20.40;73.50
22416;DHT22;12204;50.600;4.608;2023-12-29T18:07:33;20.40;73.50
22416;DHT22;12204;50.600;4.608;2023-12-29T18:12:38;20.40;73.30
22416;DHT22;12204;50.600;4.608;2023-12-29T18:17:42;20.50;73.60
22416;DHT22;12204;50.600;4.608;2023-12-29T18:22:46;20.70;73.10
22416;DHT22;12204;50.600;4.608;2023-12-29T18:27:50;20.90;72.60
22416;DHT22;12204;50.600;4.608;2023-12-29T18:32:54;21.00;72.00
22416;DHT22;12204;50.600;4.608;2023-12-29T18:37:59;21.10;71.80
22416;DHT22;12204;50.600;4.608;2023-12-29T18:43:04;21.10;71.20
22416;DHT22;12204;50.600;4.608;2023-12-29T18:48:08;21.10;71.20
22416;DHT22;12204;50.600;4.608;2023-12-29T18:53:11;21.20;71.10
22416;DHT22;12204;50.600;4.608;2023-12-29T18:58:17;21.20;71.10
22416;DHT22;12204;50.600;4.608;2023-12-29T19:03:21;21.20;71.30
22416;DHT22;12204;50.600;4.608;2023-12-29T19:08:24;21.20;71.40
22416;DHT22;12204;50.600;4.608;2023-12-29T19:13:31;21.20;71.30
22416;DHT22;12204;50.600;4.608;2023-12-29T19:18:35;21.20;71.30
22416;DHT22;12204;50.600;4.608;2023-12-29T19:23:39;21.20;71.10
22416;DHT22;12204;50.600;4.608;2023-12-29T19:28:44;21.30;71.00
22416;DHT22;12204;50.600;4.608;2023-12-29T19:33:49;21.20;70.90
22416;DHT22;12204;50.600;4.608;2023-12-29T19:38:53;21.30;70.90
22416;DHT22;12204;50.600;4.608;2023-12-29T19:43:58;21.20;70.70
22416;DHT22;12204;50.600;4.608;2023-12-29T19:49:02;21.20;70.70
22416;DHT22;12204;50.600;4.608;2023-12-29T19:54:05;21.20;70.70
22416;DHT22;12204;50.600;4.608;2023-12-29T19:59:11;21.30;70.80
22416;DHT22;12204;50.600;4.608;2023-12-29T20:04:14;21.20;70.60
22416;DHT22;12204;50.600;4.608;2023-12-29T20:09:19;21.20;70.60
22416;DHT22;12204;50.600;4.608;2023-12-29T20:14:26;21.20;70.60
22416;DHT22;12204;50.600;4.608;2023-12-29T20:19:29;21.20;70.60
22416;DHT22;12204;50.600;4.608;2023-12-29T20:24:33;21.20;70.60
22416;DHT22;12204;50.600;4.608;2023-12-29T20:29:39;21.10;70.50
22416;DHT22;12204;50.600;4.608;2023-12-29T20:34:43;21.10;70.50
22416;DHT22;12204;50.600;4.608;2023-12-29T20:39:47;21.10;70.60
22416;DHT22;12204;50.600;4.608;2023-12-29T20:44:52;21.10;70.70
22416;DHT22;12204;50.600;4.608;2023-12-29T20:49:58;21.10;70.80
22416;DHT22;12204;50.600;4.608;2023-12-29T20:55:02;21.10;71.20
22416;DHT22;12204;50.600;4.608;2023-12-29T21:00:10;21.20;71.10
22416;DHT22;12204;50.600;4.608;2023-12-29T21:05:15;21.40;70.90
22416;DHT22;12204;50.600;4.608;2023-12-29T21:10:21;21.50;70.50
22416;DHT22;12204;50.600;4.608;2023-12-29T21:15:26;21.60;70.20
22416;DHT22;12204;50.600;4.608;2023-12-29T21:20:30;21.60;69.80
22416;DHT22;12204;50.600;4.608;2023-12-29T21:25:33;21.70;69.60
22416;DHT22;12204;50.600;4.608;2023-12-29T21:30:39;21.70;69.60
22416;DHT22;12204;50.600;4.608;2023-12-29T21:35:43;21.70;69.60
22416;DHT22;12204;50.600;4.608;2023-12-29T21:40:49;21.70;69.40
22416;DHT22;12204;50.600;4.608;2023-12-29T21:45:54;21.70;69.50
22416;DHT22;12204;50.600;4.608;2023-12-29T21:50:57;21.80;69.50
22416;DHT22;12204;50.600;4.608;2023-12-29T21:56:01;21.80;69.40
22416;DHT22;12204;50.600;4.608;2023-12-29T22:01:29;21.80;69.30
22416;DHT22;12204;50.600;4.608;2023-12-29T22:06:38;21.80;69.30
22416;DHT22;12204;50.600;4.608;2023-12-29T22:11:42;21.80;69.20
22416;DHT22;12204;50.600;4.608;2023-12-29T22:16:47;21.80;69.20
22416;DHT22;12204;50.600;4.608;2023-12-29T22:21:51;21.80;69.10
22416;DHT22;12204;50.600;4.608;2023-12-29T22:26:55;21.70;69.00
22416;DHT22;12204;50.600;4.608;2023-12-29T22:32:01;21.70;69.50
22416;DHT22;12204;50.600;4.608;2023-12-29T22:37:05;21.70;70.60
22416;DHT22;12204;50.600;4.608;2023-12-29T22:42:09;21.80;71.30
22416;DHT22;12204;50.600;4.608;2023-12-29T22:47:14;21.70;71.70
22416;DHT22;12204;50.600;4.608;2023-12-29T22:52:17;21.70;72.00
22416;DHT22;12204;50.600;4.608;2023-12-29T22:57:20;21.70;72.00
22416;DHT22;12204;50.600;4.608;2023-12-29T23:02:26;21.70;72.40
22416;DHT22;12204;50.600;4.608;2023-12-29T23:07:29;21.70;72.20
22416;DHT22;12204;50.600;4.608;2023-12-29T23:12:33;21.70;71.90
22416;DHT22;12204;50.600;4.608;2023-12-29T23:17:37;21.60;71.80
22416;DHT22;12204;50.600;4.608;2023-12-29T23:22:41;21.60;72.10
22416;DHT22;12204;50.600;4.608;2023-12-29T23:27:45;21.60;71.60
22416;DHT22;12204;50.600;4.608;2023-12-29T23:32:50;21.60;71.60
22416;DHT22;12204;50.600;4.608;2023-12-29T23:37:54;21.60;71.40
22416;DHT22;12204;50.600;4.608;2023-12-29T23:42:58;21.60;71.40
22416;DHT22;12204;50.600;4.608;2023-12-29T23:48:03;21.60;71.50
22416;DHT22;12204;50.600;4.608;2023-12-29T23:53:07;21.60;71.50
22416;DHT22;12204;50.600;4.608;2023-12-29T23:58:11;21.50;71.50
